sensor_id;sensor_type;location;lat;lon;timestamp;P1;durP1;ratioP1;P2;durP2;ratioP2
74788;SDS011;63313;48.258;12.518;2023-04-24T04:25:42;1.65;;;1.0699999999999998;;
74788;SDS011;63313;48.258;12.518;2023-04-24T04:31:09;2.13;;;1.17;;
74788;SDS011;63313;48.258;12.518;2023-04-24T04:36:36;1.2399999999999998;;;1.2299999999999998;;
74788;SDS011;63313;48.258;12.518;2023-04-24T04:42:03;1.3399999999999999;;;0.8800000000000001;;
74788;SDS011;63313;48.258;12.518;2023-04-24T04:47:30;2.46;;;1.09;;
74788;SDS011;63313;48.258;12.518;2023-04-24T04:52:57;1.97;;;0.63;;
74788;SDS011;63313;48.258;12.518;2023-04-24T04:58:24;2.4899999999999998;;;0.7300000000000001;;
74788;SDS011;63313;48.258;12.518;2023-04-24T05:03:51;2.62;;;0.9000000000000001;;
74788;SDS011;63313;48.258;12.518;2023-04-24T05:09:19;2.25;;;0.7;;
74788;SDS011;63313;48.258;12.518;2023-04-24T05:14:46;3.1900000000000004;;;0.65;;
74788;SDS011;63313;48.258;12.518;2023-04-24T05:20:13;1.35;;;0.8800000000000001;;
74788;SDS011;63313;48.258;12.518;2023-04-24T05:25:40;0.9099999999999999;;;0.75;;
74788;SDS011;63313;48.258;12.518;2023-04-24T05:31:07;2.59;;;0.71;;
74788;SDS011;63313;48.258;12.518;2023-04-24T05:36:34;1.0400000000000003;;;0.8099999999999999;;
74788;SDS011;63313;48.258;12.518;2023-04-24T05:42:01;0.71;;;0.7;;
74788;SDS011;63313;48.258;12.518;2023-04-24T05:47:29;0.85;;;0.85;;
74788;SDS011;63313;48.258;12.518;2023-04-24T05:52:56;3.66;;;0.9800000000000001;;
74788;SDS011;63313;48.258;12.518;2023-04-24T05:58:23;1.08;;;1.02;;
74788;SDS011;63313;48.258;12.518;2023-04-24T06:03:50;0.9100000000000001;;;0.89;;
74788;SDS011;63313;48.258;12.518;2023-04-24T06:09:17;4.21;;;1.18;;
74788;SDS011;63313;48.258;12.518;2023-04-24T06:14:44;0.9099999999999999;;;0.86;;
74788;SDS011;63313;48.258;12.518;2023-04-24T06:20:11;3.04;;;1.1099999999999999;;
74788;SDS011;63313;48.258;12.518;2023-04-24T06:25:38;1.5999999999999999;;;1.2200000000000002;;
74788;SDS011;63313;48.258;12.518;2023-04-24T06:31:05;1.58;;;1.0;;
74788;SDS011;63313;48.258;12.518;2023-04-24T06:36:32;0.9100000000000001;;;0.9100000000000001;;
74788;SDS011;63313;48.258;12.518;2023-04-24T06:41:59;3.1499999999999995;;;1.1;;
74788;SDS011;63313;48.258;12.518;2023-04-24T06:47:26;1.1900000000000002;;;0.9400000000000001;;
74788;SDS011;63313;48.258;12.518;2023-04-24T06:52:53;1.2200000000000002;;;1.05;;
74788;SDS011;63313;48.258;12.518;2023-04-24T06:58:21;1.4200000000000002;;;1.13;;
74788;SDS011;63313;48.258;12.518;2023-04-24T07:03:47;1.6;;;1.05;;
74788;SDS011;63313;48.258;12.518;2023-04-24T07:09:15;1.2100000000000002;;;1.0999999999999999;;
74788;SDS011;63313;48.258;12.518;2023-04-24T07:14:42;1.2099999999999997;;;0.96;;
74788;SDS011;63313;48.258;12.518;2023-04-24T07:20:09;3.8699999999999997;;;1.14;;
74788;SDS011;63313;48.258;12.518;2023-04-24T07:25:37;1.06;;;1.06;;
74788;SDS011;63313;48.258;12.518;2023-04-24T07:31:04;0.9099999999999999;;;0.9099999999999999;;
74788;SDS011;63313;48.258;12.518;2023-04-24T07:36:31;3.3299999999999996;;;0.99;;
74788;SDS011;63313;48.258;12.518;2023-04-24T07:41:58;1.6199999999999999;;;0.97;;
74788;SDS011;63313;48.258;12.518;2023-04-24T07:47:25;1.16;;;1.06;;
74788;SDS011;63313;48.258;12.518;2023-04-24T07:52:52;4.22;;;1.17;;
74788;SDS011;63313;48.258;12.518;2023-04-24T07:58:19;2.94;;;0.9100000000000001;;
74788;SDS011;63313;48.258;12.518;2023-04-24T08:03:46;1.94;;;0.8099999999999999;;
74788;SDS011;63313;48.258;12.518;2023-04-24T08:09:13;0.75;;;0.7;;
74788;SDS011;63313;48.258;12.518;2023-04-24T08:14:40;1.67;;;0.71;;
74788;SDS011;63313;48.258;12.518;2023-04-24T08:20:08;0.5999999999999999;;;0.5999999999999999;;
74788;SDS011;63313;48.258;12.518;2023-04-24T08:25:35;1.0599999999999998;;;0.6599999999999999;;
74788;SDS011;63313;48.258;12.518;2023-04-24T08:31:02;0.9800000000000001;;;0.53;;
74788;SDS011;63313;48.258;12.518;2023-04-24T08:36:29;1.25;;;0.6900000000000001;;
74788;SDS011;63313;48.258;12.518;2023-04-24T08:41:56;0.49000000000000005;;;0.49000000000000005;;
74788;SDS011;63313;48.258;12.518;2023-04-24T08:47:24;0.73;;;0.6299999999999999;;
74788;SDS011;63313;48.258;12.518;2023-04-24T08:52:52;0.6299999999999999;;;0.6299999999999999;;
74788;SDS011;63313;48.258;12.518;2023-04-24T08:58:19;1.6600000000000001;;;0.6399999999999999;;
74788;SDS011;63313;48.258;12.518;2023-04-24T09:03:46;0.75;;;0.7300000000000001;;
74788;SDS011;63313;48.258;12.518;2023-04-24T09:09:15;0.7699999999999999;;;0.5899999999999999;;
74788;SDS011;63313;48.258;12.518;2023-04-24T09:14:43;2.6900000000000004;;;1.2899999999999998;;
74788;SDS011;63313;48.258;12.518;2023-04-24T09:20:11;0.5499999999999999;;;0.5499999999999999;;
74788;SDS011;63313;48.258;12.518;2023-04-24T09:25:38;0.6599999999999999;;;0.6299999999999999;;
74788;SDS011;63313;48.258;12.518;2023-04-24T09:31:06;0.74;;;0.65;;
74788;SDS011;63313;48.258;12.518;2023-04-24T09:36:34;0.5199999999999999;;;0.5199999999999999;;
74788;SDS011;63313;48.258;12.518;2023-04-24T09:42:01;0.5;;;0.5;;
74788;SDS011;63313;48.258;12.518;2023-04-24T09:47:29;0.8300000000000001;;;0.76;;
74788;SDS011;63313;48.258;12.518;2023-04-24T09:53:03;0.61;;;0.61;;
74788;SDS011;63313;48.258;12.518;2023-04-24T09:58:30;0.41000000000000003;;;0.4;;
74788;SDS011;63313;48.258;12.518;2023-04-24T10:03:57;2.52;;;0.58;;
74788;SDS011;63313;48.258;12.518;2023-04-24T10:09:25;0.59;;;0.59;;
74788;SDS011;63313;48.258;12.518;2023-04-24T10:14:52;2.65;;;0.74;;
74788;SDS011;63313;48.258;12.518;2023-04-24T10:20:20;0.8300000000000001;;;0.8200000000000001;;
74788;SDS011;63313;48.258;12.518;2023-04-24T10:25:48;1.4600000000000002;;;1.01;;
74788;SDS011;63313;48.258;12.518;2023-04-24T10:31:16;0.97;;;0.79;;
74788;SDS011;63313;48.258;12.518;2023-04-24T10:36:45;1.3199999999999998;;;0.8700000000000001;;
74788;SDS011;63313;48.258;12.518;2023-04-24T10:42:14;1.06;;;0.8300000000000001;;
74788;SDS011;63313;48.258;12.518;2023-04-24T10:47:41;1.24;;;0.8200000000000001;;
74788;SDS011;63313;48.258;12.518;2023-04-24T10:53:12;2.33;;;1.4;;
74788;SDS011;63313;48.258;12.518;2023-04-24T10:58:40;1.1099999999999999;;;1.06;;
74788;SDS011;63313;48.258;12.518;2023-04-24T11:04:07;1.25;;;0.97;;
74788;SDS011;63313;48.258;12.518;2023-04-24T11:09:34;2.4899999999999998;;;1.2100000000000002;;
74788;SDS011;63313;48.258;12.518;2023-04-24T11:15:02;1.57;;;1.21;;
74788;SDS011;63313;48.258;12.518;2023-04-24T11:20:29;1.37;;;0.9400000000000001;;
74788;SDS011;63313;48.258;12.518;2023-04-24T11:26:09;1.37;;;1.1799999999999997;;
74788;SDS011;63313;48.258;12.518;2023-04-24T11:31:37;2.0000000000000004;;;1.1500000000000001;;
74788;SDS011;63313;48.258;12.518;2023-04-24T11:37:04;2.4499999999999997;;;1.0;;
74788;SDS011;63313;48.258;12.518;2023-04-24T11:42:35;1.23;;;1.18;;
74788;SDS011;63313;48.258;12.518;2023-04-24T11:48:02;1.5399999999999998;;;1.1;;
74788;SDS011;63313;48.258;12.518;2023-04-24T11:53:30;1.02;;;1.01;;
74788;SDS011;63313;48.258;12.518;2023-04-24T11:58:57;1.8799999999999997;;;1.1199999999999999;;
74788;SDS011;63313;48.258;12.518;2023-04-24T12:04:24;2.0300000000000002;;;1.1400000000000001;;
74788;SDS011;63313;48.258;12.518;2023-04-24T12:09:55;1.75;;;1.0799999999999998;;
74788;SDS011;63313;48.258;12.518;2023-04-24T12:15:23;1.65;;;1.2399999999999998;;
74788;SDS011;63313;48.258;12.518;2023-04-24T12:20:50;0.79;;;0.79;;
74788;SDS011;63313;48.258;12.518;2023-04-24T12:26:17;2.45;;;0.78;;
74788;SDS011;63313;48.258;12.518;2023-04-24T12:31:44;0.9500000000000002;;;0.7;;
74788;SDS011;63313;48.258;12.518;2023-04-24T12:37:11;0.6900000000000001;;;0.6900000000000001;;
74788;SDS011;63313;48.258;12.518;2023-04-24T12:42:42;0.9199999999999999;;;0.8700000000000001;;
74788;SDS011;63313;48.258;12.518;2023-04-24T12:48:09;0.82;;;0.82;;
74788;SDS011;63313;48.258;12.518;2023-04-24T12:53:36;0.78;;;0.78;;
74788;SDS011;63313;48.258;12.518;2023-04-24T12:59:03;1.22;;;1.15;;
74788;SDS011;63313;48.258;12.518;2023-04-24T13:04:30;1.4100000000000001;;;1.2799999999999998;;
74788;SDS011;63313;48.258;12.518;2023-04-24T13:09:57;1.2899999999999998;;;0.96;;
74788;SDS011;63313;48.258;12.518;2023-04-24T13:15:24;0.96;;;0.96;;
74788;SDS011;63313;48.258;12.518;2023-04-24T13:20:51;1.1099999999999999;;;1.06;;
74788;SDS011;63313;48.258;12.518;2023-04-24T13:26:18;1.3000000000000003;;;1.1999999999999997;;
74788;SDS011;63313;48.258;12.518;2023-04-24T13:31:45;1.0399999999999998;;;0.9299999999999999;;
74788;SDS011;63313;48.258;12.518;2023-04-24T13:37:12;1.1300000000000001;;;1.0899999999999999;;
74788;SDS011;63313;48.258;12.518;2023-04-24T13:42:40;1.6;;;1.1999999999999997;;
74788;SDS011;63313;48.258;12.518;2023-04-24T13:48:07;1.24;;;1.21;;
74788;SDS011;63313;48.258;12.518;2023-04-24T13:53:34;1.6600000000000001;;;1.42;;
74788;SDS011;63313;48.258;12.518;2023-04-24T13:59:01;1.31;;;1.23;;
74788;SDS011;63313;48.258;12.518;2023-04-24T14:04:28;1.48;;;1.29;;
74788;SDS011;63313;48.258;12.518;2023-04-24T14:09:55;1.8;;;1.67;;
74788;SDS011;63313;48.258;12.518;2023-04-24T14:15:22;2.8000000000000003;;;1.23;;
74788;SDS011;63313;48.258;12.518;2023-04-24T14:20:49;1.2600000000000002;;;1.2200000000000002;;
74788;SDS011;63313;48.258;12.518;2023-04-24T14:26:16;1.3;;;1.01;;
74788;SDS011;63313;48.258;12.518;2023-04-24T14:31:43;5.610000000000001;;;0.9899999999999999;;
74788;SDS011;63313;48.258;12.518;2023-04-24T14:37:10;2.15;;;1.42;;
74788;SDS011;63313;48.258;12.518;2023-04-24T14:42:37;2.52;;;1.46;;
74788;SDS011;63313;48.258;12.518;2023-04-24T14:48:04;3.2900000000000005;;;1.14;;
74788;SDS011;63313;48.258;12.518;2023-04-24T14:53:31;1.6099999999999999;;;0.9400000000000001;;
74788;SDS011;63313;48.258;12.518;2023-04-24T14:58:58;0.96;;;0.96;;
74788;SDS011;63313;48.258;12.518;2023-04-24T15:04:25;1.55;;;1.1099999999999999;;
74788;SDS011;63313;48.258;12.518;2023-04-24T15:09:53;1.1099999999999999;;;0.99;;
74788;SDS011;63313;48.258;12.518;2023-04-24T15:15:20;1.17;;;1.1;;
74788;SDS011;63313;48.258;12.518;2023-04-24T15:20:47;1.23;;;1.1599999999999997;;
74788;SDS011;63313;48.258;12.518;2023-04-24T15:26:14;2.01;;;1.1599999999999997;;
74788;SDS011;63313;48.258;12.518;2023-04-24T15:31:41;1.13;;;1.0;;
74788;SDS011;63313;48.258;12.518;2023-04-24T15:37:08;2.71;;;1.3599999999999999;;
74788;SDS011;63313;48.258;12.518;2023-04-24T15:42:35;3.81;;;1.1999999999999997;;
74788;SDS011;63313;48.258;12.518;2023-04-24T15:48:02;1.26;;;1.1799999999999997;;
74788;SDS011;63313;48.258;12.518;2023-04-24T15:53:29;1.3299999999999998;;;1.1900000000000002;;
74788;SDS011;63313;48.258;12.518;2023-04-24T15:58:56;4.49;;;1.2100000000000002;;
74788;SDS011;63313;48.258;12.518;2023-04-24T16:04:24;1.6199999999999999;;;1.35;;
74788;SDS011;63313;48.258;12.518;2023-04-24T16:09:51;1.0399999999999998;;;1.01;;
74788;SDS011;63313;48.258;12.518;2023-04-24T16:15:18;1.0699999999999998;;;1.05;;
74788;SDS011;63313;48.258;12.518;2023-04-24T16:20:45;0.9;;;0.9;;
74788;SDS011;63313;48.258;12.518;2023-04-24T16:26:12;3.5599999999999996;;;0.95;;
74788;SDS011;63313;48.258;12.518;2023-04-24T16:31:39;1.54;;;1.1099999999999999;;
74788;SDS011;63313;48.258;12.518;2023-04-24T16:37:06;0.9099999999999999;;;0.9;;
74788;SDS011;63313;48.258;12.518;2023-04-24T16:42:33;0.9200000000000002;;;0.9099999999999999;;
74788;SDS011;63313;48.258;12.518;2023-04-24T16:48:00;1.2499999999999998;;;0.97;;
74788;SDS011;63313;48.258;12.518;2023-04-24T16:53:27;1.06;;;1.05;;
74788;SDS011;63313;48.258;12.518;2023-04-24T16:58:55;2.2;;;1.14;;
74788;SDS011;63313;48.258;12.518;2023-04-24T17:04:22;3.1;;;1.07;;
74788;SDS011;63313;48.258;12.518;2023-04-24T17:09:48;0.9000000000000001;;;0.89;;
74788;SDS011;63313;48.258;12.518;2023-04-24T17:15:16;0.75;;;0.72;;
74788;SDS011;63313;48.258;12.518;2023-04-24T17:20:43;0.7699999999999999;;;0.7699999999999999;;
74788;SDS011;63313;48.258;12.518;2023-04-24T17:26:10;0.85;;;0.85;;
74788;SDS011;63313;48.258;12.518;2023-04-24T17:31:37;1.6199999999999999;;;0.78;;
74788;SDS011;63313;48.258;12.518;2023-04-24T17:37:04;1.1800000000000002;;;0.85;;
74788;SDS011;63313;48.258;12.518;2023-04-24T17:42:31;3.4199999999999995;;;0.79;;
74788;SDS011;63313;48.258;12.518;2023-04-24T17:47:58;1.06;;;0.62;;
74788;SDS011;63313;48.258;12.518;2023-04-24T17:53:25;0.78;;;0.7699999999999999;;
74788;SDS011;63313;48.258;12.518;2023-04-24T17:58:52;5.340000000000001;;;1.2899999999999998;;
74788;SDS011;63313;48.258;12.518;2023-04-24T18:04:19;1.1700000000000002;;;0.9199999999999999;;
74788;SDS011;63313;48.258;12.518;2023-04-24T18:09:46;1.39;;;1.3199999999999998;;
74788;SDS011;63313;48.258;12.518;2023-04-24T18:15:13;4.610000000000001;;;2.47;;
74788;SDS011;63313;48.258;12.518;2023-04-24T18:20:41;2.47;;;2.3299999999999996;;
74788;SDS011;63313;48.258;12.518;2023-04-24T18:26:08;0.8400000000000001;;;0.8100000000000002;;
74788;SDS011;63313;48.258;12.518;2023-04-24T18:31:35;0.85;;;0.8200000000000001;;
74788;SDS011;63313;48.258;12.518;2023-04-24T18:37:02;4.18;;;0.78;;
74788;SDS011;63313;48.258;12.518;2023-04-24T18:42:29;1.06;;;0.74;;
74788;SDS011;63313;48.258;12.518;2023-04-24T18:47:56;0.97;;;0.96;;
74788;SDS011;63313;48.258;12.518;2023-04-24T18:53:23;0.99;;;0.99;;
74788;SDS011;63313;48.258;12.518;2023-04-24T18:58:50;1.34;;;1.02;;
74788;SDS011;63313;48.258;12.518;2023-04-24T19:04:17;1.8799999999999997;;;1.2099999999999997;;
74788;SDS011;63313;48.258;12.518;2023-04-24T19:09:44;2.5399999999999996;;;1.35;;
74788;SDS011;63313;48.258;12.518;2023-04-24T19:15:11;1.3900000000000001;;;1.2899999999999998;;
74788;SDS011;63313;48.258;12.518;2023-04-24T19:20:38;1.8800000000000001;;;1.53;;
74788;SDS011;63313;48.258;12.518;2023-04-24T19:26:05;1.64;;;1.49;;
74788;SDS011;63313;48.258;12.518;2023-04-24T19:31:32;3.0100000000000002;;;1.7599999999999998;;
74788;SDS011;63313;48.258;12.518;2023-04-24T19:36:59;1.7899999999999998;;;1.67;;
74788;SDS011;63313;48.258;12.518;2023-04-24T19:42:26;2.7199999999999998;;;1.9099999999999997;;
74788;SDS011;63313;48.258;12.518;2023-04-24T19:47:53;1.7600000000000002;;;1.6800000000000002;;
74788;SDS011;63313;48.258;12.518;2023-04-24T19:53:20;2.6700000000000004;;;1.9300000000000002;;
74788;SDS011;63313;48.258;12.518;2023-04-24T19:58:47;1.86;;;1.61;;
74788;SDS011;63313;48.258;12.518;2023-04-24T20:04:14;3.5400000000000005;;;2.2199999999999998;;
74788;SDS011;63313;48.258;12.518;2023-04-24T20:09:41;4.76;;;1.5299999999999998;;
74788;SDS011;63313;48.258;12.518;2023-04-24T20:15:09;3.7399999999999998;;;2.08;;
74788;SDS011;63313;48.258;12.518;2023-04-24T20:20:36;2.92;;;2.31;;
74788;SDS011;63313;48.258;12.518;2023-04-24T20:26:03;2.43;;;2.2499999999999996;;
74788;SDS011;63313;48.258;12.518;2023-04-24T20:31:30;5.04;;;2.8200000000000003;;
74788;SDS011;63313;48.258;12.518;2023-04-24T20:36:57;3.71;;;2.31;;
74788;SDS011;63313;48.258;12.518;2023-04-24T20:42:24;3.59;;;2.44;;
74788;SDS011;63313;48.258;12.518;2023-04-24T20:47:52;4.93;;;2.34;;
74788;SDS011;63313;48.258;12.518;2023-04-24T20:53:19;2.44;;;2.17;;
74788;SDS011;63313;48.258;12.518;2023-04-24T20:58:46;4.41;;;2.16;;
74788;SDS011;63313;48.258;12.518;2023-04-24T21:04:13;6.170000000000001;;;2.3;;
74788;SDS011;63313;48.258;12.518;2023-04-24T21:09:40;2.98;;;2.1700000000000004;;
74788;SDS011;63313;48.258;12.518;2023-04-24T21:15:07;2.4199999999999995;;;2.31;;
74788;SDS011;63313;48.258;12.518;2023-04-24T21:20:34;6.08;;;2.5300000000000002;;
74788;SDS011;63313;48.258;12.518;2023-04-24T21:26:02;4.35;;;2.3699999999999997;;
74788;SDS011;63313;48.258;12.518;2023-04-24T21:31:29;3.1099999999999994;;;2.6000000000000005;;
74788;SDS011;63313;48.258;12.518;2023-04-24T21:36:56;6.22;;;2.5300000000000002;;
74788;SDS011;63313;48.258;12.518;2023-04-24T21:42:23;4.36;;;3.1799999999999997;;
74788;SDS011;63313;48.258;12.518;2023-04-24T21:47:50;8.11;;;4.090000000000001;;
74788;SDS011;63313;48.258;12.518;2023-04-24T21:53:17;9.629999999999999;;;2.7199999999999998;;
74788;SDS011;63313;48.258;12.518;2023-04-24T21:58:44;2.73;;;2.29;;
74788;SDS011;63313;48.258;12.518;2023-04-24T22:04:12;3.16;;;1.85;;
74788;SDS011;63313;48.258;12.518;2023-04-24T22:09:39;1.95;;;1.8399999999999999;;
74788;SDS011;63313;48.258;12.518;2023-04-24T22:15:06;3.41;;;2.09;;
74788;SDS011;63313;48.258;12.518;2023-04-24T22:20:33;3.35;;;2.03;;
74788;SDS011;63313;48.258;12.518;2023-04-24T22:26:00;3.1999999999999997;;;2.2699999999999996;;
74788;SDS011;63313;48.258;12.518;2023-04-24T22:31:27;3.35;;;2.0300000000000002;;
74788;SDS011;63313;48.258;12.518;2023-04-24T22:36:54;7.55;;;2.3899999999999997;;
74788;SDS011;63313;48.258;12.518;2023-04-24T22:42:21;2.6999999999999997;;;2.0000000000000004;;
74788;SDS011;63313;48.258;12.518;2023-04-24T22:47:49;2.0;;;1.8800000000000001;;
74788;SDS011;63313;48.258;12.518;2023-04-24T22:53:16;4.299999999999999;;;2.1399999999999997;;
74788;SDS011;63313;48.258;12.518;2023-04-24T22:58:43;4.45;;;1.9600000000000002;;
74788;SDS011;63313;48.258;12.518;2023-04-24T23:04:10;2.9199999999999995;;;1.8700000000000003;;
74788;SDS011;63313;48.258;12.518;2023-04-24T23:09:37;3.94;;;1.9500000000000004;;
74788;SDS011;63313;48.258;12.518;2023-04-24T23:15:04;3.4200000000000004;;;2.06;;
74788;SDS011;63313;48.258;12.518;2023-04-24T23:20:32;2.12;;;1.98;;
74788;SDS011;63313;48.258;12.518;2023-04-24T23:25:59;1.97;;;1.86;;
74788;SDS011;63313;48.258;12.518;2023-04-24T23:31:26;2.4200000000000004;;;1.95;;
74788;SDS011;63313;48.258;12.518;2023-04-24T23:36:52;2.82;;;2.37;;
74788;SDS011;63313;48.258;12.518;2023-04-24T23:42:20;2.94;;;2.47;;
74788;SDS011;63313;48.258;12.518;2023-04-24T23:47:47;5.23;;;2.44;;
74788;SDS011;63313;48.258;12.518;2023-04-24T23:53:14;12.62;;;2.3299999999999996;;
74788;SDS011;63313;48.258;12.518;2023-04-24T23:58:41;2.7499999999999996;;;2.2299999999999995;;
